sensor_id;sensor_type;location;lat;lon;timestamp;temperature;humidity
24560;DHT22;12727;49.934;8.656;2023-04-29T00:00:41;11.40;99.90
24560;DHT22;12727;49.934;8.656;2023-04-29T00:03:07;11.20;99.90
24560;DHT22;12727;49.934;8.656;2023-04-29T00:05:33;11.10;99.90
24560;DHT22;12727;49.934;8.656;2023-04-29T00:07:59;11.00;99.90
24560;DHT22;12727;49.934;8.656;2023-04-29T00:10:24;10.90;99.90
24560;DHT22;12727;49.934;8.656;2023-04-29T00:12:50;10.90;99.90
24560;DHT22;12727;49.934;8.656;2023-04-29T00:15:16;10.90;99.90
24560;DHT22;12727;49.934;8.656;2023-04-29T00:17:42;10.90;99.90
24560;DHT22;12727;49.934;8.656;2023-04-29T00:20:08;10.90;99.90
24560;DHT22;12727;49.934;8.656;2023-04-29T00:22:34;10.90;99.90
24560;DHT22;12727;49.934;8.656;2023-04-29T00:25:00;11.20;99.90
24560;DHT22;12727;49.934;8.656;2023-04-29T00:27:25;11.30;99.90
24560;DHT22;12727;49.934;8.656;2023-04-29T00:29:51;11.40;99.90
24560;DHT22;12727;49.934;8.656;2023-04-29T00:32:17;11.40;99.90
24560;DHT22;12727;49.934;8.656;2023-04-29T00:34:43;11.50;99.90
24560;DHT22;12727;49.934;8.656;2023-04-29T00:37:08;11.50;99.90
24560;DHT22;12727;49.934;8.656;2023-04-29T00:39:34;11.50;99.90
24560;DHT22;12727;49.934;8.656;2023-04-29T00:41:59;11.50;99.90
24560;DHT22;12727;49.934;8.656;2023-04-29T00:44:25;11.30;99.90
24560;DHT22;12727;49.934;8.656;2023-04-29T00:46:50;11.40;99.90
24560;DHT22;12727;49.934;8.656;2023-04-29T00:49:16;11.50;99.90
24560;DHT22;12727;49.934;8.656;2023-04-29T00:51:43;11.40;99.90
24560;DHT22;12727;49.934;8.656;2023-04-29T00:54:09;11.30;99.90
24560;DHT22;12727;49.934;8.656;2023-04-29T00:56:36;11.20;99.90
24560;DHT22;12727;49.934;8.656;2023-04-29T00:59:03;11.40;99.90
24560;DHT22;12727;49.934;8.656;2023-04-29T01:01:30;11.30;99.90
24560;DHT22;12727;49.934;8.656;2023-04-29T01:03:56;11.10;99.90
24560;DHT22;12727;49.934;8.656;2023-04-29T01:06:28;11.20;99.90
24560;DHT22;12727;49.934;8.656;2023-04-29T01:14:19;10.90;99.90
24560;DHT22;12727;49.934;8.656;2023-04-29T01:16:51;10.80;99.90
24560;DHT22;12727;49.934;8.656;2023-04-29T01:19:38;10.80;99.90
24560;DHT22;12727;49.934;8.656;2023-04-29T01:22:08;10.80;99.90
24560;DHT22;12727;49.934;8.656;2023-04-29T01:24:34;10.80;99.90
24560;DHT22;12727;49.934;8.656;2023-04-29T01:30:06;10.80;99.90
24560;DHT22;12727;49.934;8.656;2023-04-29T01:32:50;10.90;99.90
24560;DHT22;12727;49.934;8.656;2023-04-29T01:35:29;10.90;99.90
24560;DHT22;12727;49.934;8.656;2023-04-29T01:38:16;11.00;99.90
24560;DHT22;12727;49.934;8.656;2023-04-29T01:40:47;11.10;99.90
24560;DHT22;12727;49.934;8.656;2023-04-29T01:43:22;11.30;99.90
24560;DHT22;12727;49.934;8.656;2023-04-29T01:45:49;11.30;99.90
24560;DHT22;12727;49.934;8.656;2023-04-29T01:48:16;11.40;99.90
24560;DHT22;12727;49.934;8.656;2023-04-29T01:50:42;11.50;99.90
24560;DHT22;12727;49.934;8.656;2023-04-29T01:53:08;11.70;99.90
24560;DHT22;12727;49.934;8.656;2023-04-29T01:55:33;11.80;99.90
24560;DHT22;12727;49.934;8.656;2023-04-29T01:58:05;12.00;99.90
24560;DHT22;12727;49.934;8.656;2023-04-29T02:00:30;12.00;99.90
24560;DHT22;12727;49.934;8.656;2023-04-29T02:02:56;11.90;99.90
24560;DHT22;12727;49.934;8.656;2023-04-29T02:05:22;11.70;99.90
24560;DHT22;12727;49.934;8.656;2023-04-29T02:07:47;11.60;99.90
24560;DHT22;12727;49.934;8.656;2023-04-29T02:10:13;11.70;99.90
24560;DHT22;12727;49.934;8.656;2023-04-29T02:12:38;11.80;99.90
24560;DHT22;12727;49.934;8.656;2023-04-29T02:15:05;11.70;99.90
24560;DHT22;12727;49.934;8.656;2023-04-29T02:17:32;11.80;99.90
24560;DHT22;12727;49.934;8.656;2023-04-29T02:19:58;11.80;99.90
24560;DHT22;12727;49.934;8.656;2023-04-29T02:22:23;11.70;99.90
24560;DHT22;12727;49.934;8.656;2023-04-29T02:24:49;11.70;99.90
24560;DHT22;12727;49.934;8.656;2023-04-29T02:27:14;11.60;99.90
24560;DHT22;12727;49.934;8.656;2023-04-29T02:29:40;11.40;99.90
24560;DHT22;12727;49.934;8.656;2023-04-29T02:32:06;11.30;99.90
24560;DHT22;12727;49.934;8.656;2023-04-29T02:34:31;11.20;99.90
24560;DHT22;12727;49.934;8.656;2023-04-29T02:36:57;11.10;99.90
24560;DHT22;12727;49.934;8.656;2023-04-29T02:39:23;11.00;99.90
24560;DHT22;12727;49.934;8.656;2023-04-29T02:41:49;11.00;99.90
24560;DHT22;12727;49.934;8.656;2023-04-29T02:44:14;11.10;99.90
24560;DHT22;12727;49.934;8.656;2023-04-29T02:46:40;11.10;99.90
24560;DHT22;12727;49.934;8.656;2023-04-29T02:49:10;11.10;99.90
24560;DHT22;12727;49.934;8.656;2023-04-29T02:51:36;11.10;99.90
24560;DHT22;12727;49.934;8.656;2023-04-29T02:54:01;11.10;99.90
24560;DHT22;12727;49.934;8.656;2023-04-29T02:56:27;11.10;99.90
24560;DHT22;12727;49.934;8.656;2023-04-29T02:58:53;11.10;99.90
24560;DHT22;12727;49.934;8.656;2023-04-29T03:01:18;11.00;99.90
24560;DHT22;12727;49.934;8.656;2023-04-29T03:03:44;11.00;99.90
24560;DHT22;12727;49.934;8.656;2023-04-29T03:06:09;11.10;99.90
24560;DHT22;12727;49.934;8.656;2023-04-29T03:08:35;11.10;99.90
24560;DHT22;12727;49.934;8.656;2023-04-29T03:11:01;11.10;99.90
24560;DHT22;12727;49.934;8.656;2023-04-29T03:13:26;11.20;99.90
24560;DHT22;12727;49.934;8.656;2023-04-29T03:15:52;11.20;99.90
24560;DHT22;12727;49.934;8.656;2023-04-29T03:18:17;11.40;99.90
24560;DHT22;12727;49.934;8.656;2023-04-29T03:20:43;11.50;99.90
24560;DHT22;12727;49.934;8.656;2023-04-29T03:23:09;11.40;99.90
24560;DHT22;12727;49.934;8.656;2023-04-29T03:25:34;11.40;99.90
24560;DHT22;12727;49.934;8.656;2023-04-29T03:28:01;11.60;99.90
24560;DHT22;12727;49.934;8.656;2023-04-29T03:30:26;11.50;99.90
24560;DHT22;12727;49.934;8.656;2023-04-29T03:32:52;11.40;99.90
24560;DHT22;12727;49.934;8.656;2023-04-29T03:35:17;11.50;99.90
24560;DHT22;12727;49.934;8.656;2023-04-29T03:37:43;11.70;99.90
24560;DHT22;12727;49.934;8.656;2023-04-29T03:40:09;12.00;99.90
24560;DHT22;12727;49.934;8.656;2023-04-29T03:42:35;12.10;99.90
24560;DHT22;12727;49.934;8.656;2023-04-29T03:45:00;12.10;99.90
24560;DHT22;12727;49.934;8.656;2023-04-29T03:47:26;12.00;99.90
24560;DHT22;12727;49.934;8.656;2023-04-29T03:49:52;12.00;99.90
24560;DHT22;12727;49.934;8.656;2023-04-29T03:52:17;12.00;99.90
24560;DHT22;12727;49.934;8.656;2023-04-29T03:54:44;12.20;99.90
24560;DHT22;12727;49.934;8.656;2023-04-29T03:57:10;12.20;99.90
24560;DHT22;12727;49.934;8.656;2023-04-29T03:59:36;12.10;99.90
24560;DHT22;12727;49.934;8.656;2023-04-29T04:02:01;12.10;99.90
24560;DHT22;12727;49.934;8.656;2023-04-29T04:04:27;12.30;99.90
24560;DHT22;12727;49.934;8.656;2023-04-29T04:06:52;12.40;99.90
24560;DHT22;12727;49.934;8.656;2023-04-29T04:09:18;12.50;99.90
24560;DHT22;12727;49.934;8.656;2023-04-29T04:11:44;12.50;99.90
24560;DHT22;12727;49.934;8.656;2023-04-29T04:14:10;12.40;99.90
24560;DHT22;12727;49.934;8.656;2023-04-29T04:16:35;12.50;99.90
24560;DHT22;12727;49.934;8.656;2023-04-29T04:19:01;12.60;99.90
24560;DHT22;12727;49.934;8.656;2023-04-29T04:21:27;12.80;99.90
24560;DHT22;12727;49.934;8.656;2023-04-29T04:23:54;12.60;99.90
24560;DHT22;12727;49.934;8.656;2023-04-29T04:26:20;12.50;99.90
24560;DHT22;12727;49.934;8.656;2023-04-29T04:28:46;12.50;99.90
24560;DHT22;12727;49.934;8.656;2023-04-29T04:31:11;12.60;99.90
24560;DHT22;12727;49.934;8.656;2023-04-29T04:33:40;12.70;99.90
24560;DHT22;12727;49.934;8.656;2023-04-29T04:36:06;12.80;99.90
24560;DHT22;12727;49.934;8.656;2023-04-29T04:38:32;12.80;99.90
24560;DHT22;12727;49.934;8.656;2023-04-29T04:40:58;12.90;99.90
24560;DHT22;12727;49.934;8.656;2023-04-29T04:43:23;13.10;99.90
24560;DHT22;12727;49.934;8.656;2023-04-29T04:45:49;13.10;99.90
24560;DHT22;12727;49.934;8.656;2023-04-29T04:48:15;13.20;99.90
24560;DHT22;12727;49.934;8.656;2023-04-29T04:50:40;13.00;99.90
24560;DHT22;12727;49.934;8.656;2023-04-29T04:53:09;12.90;99.90
24560;DHT22;12727;49.934;8.656;2023-04-29T04:55:34;12.90;99.90
24560;DHT22;12727;49.934;8.656;2023-04-29T04:58:01;13.00;99.90
24560;DHT22;12727;49.934;8.656;2023-04-29T05:00:26;13.10;99.90
24560;DHT22;12727;49.934;8.656;2023-04-29T05:02:52;13.10;99.90
24560;DHT22;12727;49.934;8.656;2023-04-29T05:05:17;12.90;99.90
24560;DHT22;12727;49.934;8.656;2023-04-29T05:07:43;12.80;99.90
24560;DHT22;12727;49.934;8.656;2023-04-29T05:10:09;12.80;99.90
24560;DHT22;12727;49.934;8.656;2023-04-29T05:12:34;12.90;99.90
24560;DHT22;12727;49.934;8.656;2023-04-29T05:15:01;12.90;99.90
24560;DHT22;12727;49.934;8.656;2023-04-29T05:17:27;12.80;99.90
24560;DHT22;12727;49.934;8.656;2023-04-29T05:19:52;12.70;99.90
24560;DHT22;12727;49.934;8.656;2023-04-29T05:22:18;12.70;99.90
24560;DHT22;12727;49.934;8.656;2023-04-29T05:24:43;12.60;99.90
24560;DHT22;12727;49.934;8.656;2023-04-29T05:27:09;12.60;99.90
24560;DHT22;12727;49.934;8.656;2023-04-29T05:29:35;12.90;99.90
24560;DHT22;12727;49.934;8.656;2023-04-29T05:32:01;13.00;99.90
24560;DHT22;12727;49.934;8.656;2023-04-29T05:34:26;13.10;99.90
24560;DHT22;12727;49.934;8.656;2023-04-29T05:36:52;13.00;99.90
24560;DHT22;12727;49.934;8.656;2023-04-29T05:39:17;13.20;99.90
24560;DHT22;12727;49.934;8.656;2023-04-29T05:41:43;13.10;99.90
24560;DHT22;12727;49.934;8.656;2023-04-29T05:44:09;13.30;99.90
24560;DHT22;12727;49.934;8.656;2023-04-29T05:46:34;13.40;99.90
24560;DHT22;12727;49.934;8.656;2023-04-29T05:49:00;13.60;99.90
24560;DHT22;12727;49.934;8.656;2023-04-29T05:51:26;13.70;99.90
24560;DHT22;12727;49.934;8.656;2023-04-29T05:53:53;13.90;99.90
24560;DHT22;12727;49.934;8.656;2023-04-29T05:56:18;14.00;99.90
24560;DHT22;12727;49.934;8.656;2023-04-29T05:58:44;14.00;99.90
24560;DHT22;12727;49.934;8.656;2023-04-29T06:01:10;14.00;99.90
24560;DHT22;12727;49.934;8.656;2023-04-29T06:03:35;13.80;99.90
24560;DHT22;12727;49.934;8.656;2023-04-29T06:06:01;13.80;99.90
24560;DHT22;12727;49.934;8.656;2023-04-29T06:08:27;13.80;99.90
24560;DHT22;12727;49.934;8.656;2023-04-29T06:10:53;13.90;99.90
24560;DHT22;12727;49.934;8.656;2023-04-29T06:13:18;14.00;99.90
24560;DHT22;12727;49.934;8.656;2023-04-29T06:15:44;14.10;99.90
24560;DHT22;12727;49.934;8.656;2023-04-29T06:18:10;13.90;99.90
24560;DHT22;12727;49.934;8.656;2023-04-29T06:20:35;13.90;99.90
24560;DHT22;12727;49.934;8.656;2023-04-29T06:23:01;14.00;99.90
24560;DHT22;12727;49.934;8.656;2023-04-29T06:25:26;13.90;99.90
24560;DHT22;12727;49.934;8.656;2023-04-29T06:27:52;13.80;99.90
24560;DHT22;12727;49.934;8.656;2023-04-29T06:30:18;14.10;99.90
24560;DHT22;12727;49.934;8.656;2023-04-29T06:32:43;14.30;99.90
24560;DHT22;12727;49.934;8.656;2023-04-29T06:35:09;14.30;99.90
24560;DHT22;12727;49.934;8.656;2023-04-29T06:37:34;14.40;99.90
24560;DHT22;12727;49.934;8.656;2023-04-29T06:40:00;14.40;99.90
24560;DHT22;12727;49.934;8.656;2023-04-29T06:42:26;14.40;99.90
24560;DHT22;12727;49.934;8.656;2023-04-29T06:44:51;14.30;99.90
24560;DHT22;12727;49.934;8.656;2023-04-29T06:47:17;14.40;99.90
24560;DHT22;12727;49.934;8.656;2023-04-29T06:49:43;14.30;99.90
24560;DHT22;12727;49.934;8.656;2023-04-29T06:52:08;14.10;99.90
24560;DHT22;12727;49.934;8.656;2023-04-29T06:54:34;14.20;99.90
24560;DHT22;12727;49.934;8.656;2023-04-29T06:57:00;14.20;99.90
24560;DHT22;12727;49.934;8.656;2023-04-29T06:59:26;14.10;99.90
24560;DHT22;12727;49.934;8.656;2023-04-29T07:01:52;14.10;99.90
24560;DHT22;12727;49.934;8.656;2023-04-29T07:04:17;14.20;99.90
24560;DHT22;12727;49.934;8.656;2023-04-29T07:06:43;14.20;99.90
24560;DHT22;12727;49.934;8.656;2023-04-29T07:09:11;14.10;99.90
24560;DHT22;12727;49.934;8.656;2023-04-29T07:11:38;14.20;99.90
24560;DHT22;12727;49.934;8.656;2023-04-29T07:14:04;14.30;99.90
24560;DHT22;12727;49.934;8.656;2023-04-29T07:16:30;14.40;99.90
24560;DHT22;12727;49.934;8.656;2023-04-29T07:18:55;14.30;99.90
24560;DHT22;12727;49.934;8.656;2023-04-29T07:21:21;14.10;99.90
24560;DHT22;12727;49.934;8.656;2023-04-29T07:23:46;14.10;99.90
24560;DHT22;12727;49.934;8.656;2023-04-29T07:26:14;14.10;99.90
24560;DHT22;12727;49.934;8.656;2023-04-29T07:28:40;14.10;99.90
24560;DHT22;12727;49.934;8.656;2023-04-29T07:31:06;14.00;99.90
24560;DHT22;12727;49.934;8.656;2023-04-29T07:33:32;13.90;99.90
24560;DHT22;12727;49.934;8.656;2023-04-29T07:35:58;13.80;99.90
24560;DHT22;12727;49.934;8.656;2023-04-29T07:38:24;14.00;99.90
24560;DHT22;12727;49.934;8.656;2023-04-29T07:40:49;14.20;99.90
24560;DHT22;12727;49.934;8.656;2023-04-29T07:43:15;14.20;99.90
24560;DHT22;12727;49.934;8.656;2023-04-29T07:45:40;14.30;99.90
24560;DHT22;12727;49.934;8.656;2023-04-29T07:48:06;14.40;99.90
24560;DHT22;12727;49.934;8.656;2023-04-29T07:50:35;14.60;99.90
24560;DHT22;12727;49.934;8.656;2023-04-29T07:53:02;14.60;99.90
24560;DHT22;12727;49.934;8.656;2023-04-29T07:55:28;14.60;99.90
24560;DHT22;12727;49.934;8.656;2023-04-29T07:57:54;14.50;99.90
24560;DHT22;12727;49.934;8.656;2023-04-29T08:00:21;14.50;99.90
24560;DHT22;12727;49.934;8.656;2023-04-29T08:02:50;14.70;99.90
24560;DHT22;12727;49.934;8.656;2023-04-29T08:05:16;15.40;99.90
24560;DHT22;12727;49.934;8.656;2023-04-29T08:07:42;15.60;99.90
24560;DHT22;12727;49.934;8.656;2023-04-29T08:10:08;15.70;99.90
24560;DHT22;12727;49.934;8.656;2023-04-29T08:12:34;15.80;99.90
24560;DHT22;12727;49.934;8.656;2023-04-29T08:14:59;15.50;99.90
24560;DHT22;12727;49.934;8.656;2023-04-29T08:17:25;15.20;99.90
24560;DHT22;12727;49.934;8.656;2023-04-29T08:19:50;15.00;99.90
24560;DHT22;12727;49.934;8.656;2023-04-29T08:22:16;15.00;99.90
24560;DHT22;12727;49.934;8.656;2023-04-29T08:24:41;15.00;99.90
24560;DHT22;12727;49.934;8.656;2023-04-29T08:27:07;15.00;99.90
24560;DHT22;12727;49.934;8.656;2023-04-29T08:29:33;14.80;99.90
24560;DHT22;12727;49.934;8.656;2023-04-29T08:31:59;14.70;99.90
24560;DHT22;12727;49.934;8.656;2023-04-29T08:34:25;14.60;99.90
24560;DHT22;12727;49.934;8.656;2023-04-29T08:36:51;14.70;99.90
24560;DHT22;12727;49.934;8.656;2023-04-29T08:39:16;14.60;99.90
24560;DHT22;12727;49.934;8.656;2023-04-29T08:41:42;14.70;99.90
24560;DHT22;12727;49.934;8.656;2023-04-29T08:44:14;14.80;99.90
24560;DHT22;12727;49.934;8.656;2023-04-29T08:46:44;14.80;99.90
24560;DHT22;12727;49.934;8.656;2023-04-29T08:49:10;14.80;99.90
24560;DHT22;12727;49.934;8.656;2023-04-29T08:51:37;14.80;99.90
24560;DHT22;12727;49.934;8.656;2023-04-29T08:54:03;14.80;99.90
24560;DHT22;12727;49.934;8.656;2023-04-29T08:56:30;14.80;99.90
24560;DHT22;12727;49.934;8.656;2023-04-29T08:58:57;14.80;99.90
24560;DHT22;12727;49.934;8.656;2023-04-29T09:01:27;14.80;99.90
24560;DHT22;12727;49.934;8.656;2023-04-29T09:04:04;14.70;99.90
24560;DHT22;12727;49.934;8.656;2023-04-29T09:06:33;14.70;99.90
24560;DHT22;12727;49.934;8.656;2023-04-29T09:08:59;14.70;99.90
24560;DHT22;12727;49.934;8.656;2023-04-29T09:11:27;14.80;99.90
24560;DHT22;12727;49.934;8.656;2023-04-29T09:13:58;14.70;99.90
24560;DHT22;12727;49.934;8.656;2023-04-29T09:16:25;14.70;99.90
24560;DHT22;12727;49.934;8.656;2023-04-29T09:18:51;14.60;99.90
24560;DHT22;12727;49.934;8.656;2023-04-29T09:21:26;14.70;99.90
24560;DHT22;12727;49.934;8.656;2023-04-29T09:23:53;14.70;99.90
24560;DHT22;12727;49.934;8.656;2023-04-29T09:26:19;14.50;99.90
24560;DHT22;12727;49.934;8.656;2023-04-29T09:28:45;14.50;99.90
24560;DHT22;12727;49.934;8.656;2023-04-29T09:31:12;14.50;99.90
24560;DHT22;12727;49.934;8.656;2023-04-29T09:33:49;14.50;99.90
24560;DHT22;12727;49.934;8.656;2023-04-29T09:36:35;14.50;99.90
24560;DHT22;12727;49.934;8.656;2023-04-29T09:39:15;14.40;99.90
24560;DHT22;12727;49.934;8.656;2023-04-29T09:47:04;14.40;99.90
24560;DHT22;12727;49.934;8.656;2023-04-29T09:49:38;14.60;99.90
24560;DHT22;12727;49.934;8.656;2023-04-29T09:52:07;14.60;99.90
24560;DHT22;12727;49.934;8.656;2023-04-29T09:54:35;14.60;99.90
24560;DHT22;12727;49.934;8.656;2023-04-29T09:57:02;14.60;99.90
24560;DHT22;12727;49.934;8.656;2023-04-29T09:59:30;14.50;99.90
24560;DHT22;12727;49.934;8.656;2023-04-29T10:01:57;14.40;99.90
24560;DHT22;12727;49.934;8.656;2023-04-29T10:04:24;14.50;99.90
24560;DHT22;12727;49.934;8.656;2023-04-29T10:06:55;14.40;99.90
24560;DHT22;12727;49.934;8.656;2023-04-29T10:09:22;14.40;99.90
24560;DHT22;12727;49.934;8.656;2023-04-29T10:11:52;14.40;99.90
24560;DHT22;12727;49.934;8.656;2023-04-29T10:14:21;14.30;99.90
24560;DHT22;12727;49.934;8.656;2023-04-29T10:17:10;14.20;99.90
24560;DHT22;12727;49.934;8.656;2023-04-29T10:19:51;14.10;99.90
24560;DHT22;12727;49.934;8.656;2023-04-29T10:25:09;14.20;99.90
24560;DHT22;12727;49.934;8.656;2023-04-29T10:27:36;14.00;99.90
24560;DHT22;12727;49.934;8.656;2023-04-29T10:30:02;14.10;99.90
24560;DHT22;12727;49.934;8.656;2023-04-29T10:32:29;14.10;99.90
24560;DHT22;12727;49.934;8.656;2023-04-29T10:34:56;13.90;99.90
24560;DHT22;12727;49.934;8.656;2023-04-29T10:37:24;13.80;99.90
24560;DHT22;12727;49.934;8.656;2023-04-29T10:45:28;13.90;99.90
24560;DHT22;12727;49.934;8.656;2023-04-29T10:50:40;13.90;99.90
24560;DHT22;12727;49.934;8.656;2023-04-29T10:53:23;13.90;99.90
24560;DHT22;12727;49.934;8.656;2023-04-29T10:55:53;13.80;99.90
24560;DHT22;12727;49.934;8.656;2023-04-29T11:01:05;13.60;99.90
24560;DHT22;12727;49.934;8.656;2023-04-29T11:03:55;13.70;99.90
24560;DHT22;12727;49.934;8.656;2023-04-29T11:09:03;13.90;99.90
24560;DHT22;12727;49.934;8.656;2023-04-29T11:11:43;14.00;99.90
24560;DHT22;12727;49.934;8.656;2023-04-29T11:14:09;13.90;99.90
24560;DHT22;12727;49.934;8.656;2023-04-29T11:16:36;13.80;99.90
24560;DHT22;12727;49.934;8.656;2023-04-29T11:19:08;13.90;99.90
24560;DHT22;12727;49.934;8.656;2023-04-29T11:21:35;14.00;99.90
24560;DHT22;12727;49.934;8.656;2023-04-29T11:24:02;14.00;99.90
24560;DHT22;12727;49.934;8.656;2023-04-29T11:26:33;14.20;99.90
24560;DHT22;12727;49.934;8.656;2023-04-29T11:28:59;14.10;99.90
24560;DHT22;12727;49.934;8.656;2023-04-29T11:31:32;14.00;99.90
24560;DHT22;12727;49.934;8.656;2023-04-29T11:33:58;14.00;99.90
24560;DHT22;12727;49.934;8.656;2023-04-29T11:36:25;14.20;99.90
24560;DHT22;12727;49.934;8.656;2023-04-29T11:38:52;14.40;99.90
24560;DHT22;12727;49.934;8.656;2023-04-29T11:41:18;14.40;99.90
24560;DHT22;12727;49.934;8.656;2023-04-29T11:43:53;14.60;99.90
24560;DHT22;12727;49.934;8.656;2023-04-29T11:46:19;14.70;99.90
24560;DHT22;12727;49.934;8.656;2023-04-29T11:48:46;14.90;99.90
24560;DHT22;12727;49.934;8.656;2023-04-29T11:51:13;15.00;99.90
24560;DHT22;12727;49.934;8.656;2023-04-29T11:53:39;15.20;99.90
24560;DHT22;12727;49.934;8.656;2023-04-29T11:56:05;15.30;99.90
24560;DHT22;12727;49.934;8.656;2023-04-29T11:58:31;15.30;99.90
24560;DHT22;12727;49.934;8.656;2023-04-29T12:00:59;15.20;99.90
24560;DHT22;12727;49.934;8.656;2023-04-29T12:03:25;15.40;99.90
24560;DHT22;12727;49.934;8.656;2023-04-29T12:05:52;15.60;99.90
24560;DHT22;12727;49.934;8.656;2023-04-29T12:08:27;15.80;99.90
24560;DHT22;12727;49.934;8.656;2023-04-29T12:10:57;16.00;98.80
24560;DHT22;12727;49.934;8.656;2023-04-29T12:13:28;16.20;99.90
24560;DHT22;12727;49.934;8.656;2023-04-29T12:15:55;16.50;99.90
24560;DHT22;12727;49.934;8.656;2023-04-29T12:18:22;16.60;99.10
24560;DHT22;12727;49.934;8.656;2023-04-29T12:20:49;16.70;97.10
24560;DHT22;12727;49.934;8.656;2023-04-29T12:23:22;16.60;98.40
24560;DHT22;12727;49.934;8.656;2023-04-29T12:25:56;16.80;98.40
24560;DHT22;12727;49.934;8.656;2023-04-29T12:28:22;16.70;96.30
24560;DHT22;12727;49.934;8.656;2023-04-29T12:30:50;16.90;97.70
24560;DHT22;12727;49.934;8.656;2023-04-29T12:33:26;16.80;97.60
24560;DHT22;12727;49.934;8.656;2023-04-29T12:35:57;17.00;96.90
24560;DHT22;12727;49.934;8.656;2023-04-29T12:38:24;17.30;97.10
24560;DHT22;12727;49.934;8.656;2023-04-29T12:40:54;17.50;96.60
24560;DHT22;12727;49.934;8.656;2023-04-29T12:43:31;17.60;96.00
24560;DHT22;12727;49.934;8.656;2023-04-29T12:46:08;17.40;93.40
24560;DHT22;12727;49.934;8.656;2023-04-29T12:48:35;17.10;95.10
24560;DHT22;12727;49.934;8.656;2023-04-29T12:51:03;17.10;95.90
24560;DHT22;12727;49.934;8.656;2023-04-29T12:53:29;17.20;95.30
24560;DHT22;12727;49.934;8.656;2023-04-29T12:55:55;17.40;95.30
24560;DHT22;12727;49.934;8.656;2023-04-29T12:58:21;17.50;95.20
24560;DHT22;12727;49.934;8.656;2023-04-29T13:00:47;17.70;94.90
24560;DHT22;12727;49.934;8.656;2023-04-29T13:03:13;17.50;94.10
24560;DHT22;12727;49.934;8.656;2023-04-29T13:05:39;17.40;94.60
24560;DHT22;12727;49.934;8.656;2023-04-29T13:08:05;17.10;94.00
24560;DHT22;12727;49.934;8.656;2023-04-29T13:10:31;16.90;94.40
24560;DHT22;12727;49.934;8.656;2023-04-29T13:12:58;16.70;94.10
24560;DHT22;12727;49.934;8.656;2023-04-29T13:15:24;16.60;94.80
24560;DHT22;12727;49.934;8.656;2023-04-29T13:17:50;16.50;95.10
24560;DHT22;12727;49.934;8.656;2023-04-29T13:20:16;16.40;95.40
24560;DHT22;12727;49.934;8.656;2023-04-29T13:22:42;16.40;95.10
24560;DHT22;12727;49.934;8.656;2023-04-29T13:25:09;16.20;95.40
24560;DHT22;12727;49.934;8.656;2023-04-29T13:27:36;16.10;95.30
24560;DHT22;12727;49.934;8.656;2023-04-29T13:30:02;15.90;95.00
24560;DHT22;12727;49.934;8.656;2023-04-29T13:32:27;15.90;95.20
24560;DHT22;12727;49.934;8.656;2023-04-29T13:34:53;15.90;95.80
24560;DHT22;12727;49.934;8.656;2023-04-29T13:37:18;15.90;96.30
24560;DHT22;12727;49.934;8.656;2023-04-29T13:39:44;15.90;97.10
24560;DHT22;12727;49.934;8.656;2023-04-29T13:42:10;15.80;97.20
24560;DHT22;12727;49.934;8.656;2023-04-29T13:44:36;15.70;97.90
24560;DHT22;12727;49.934;8.656;2023-04-29T13:47:02;15.70;98.50
24560;DHT22;12727;49.934;8.656;2023-04-29T13:49:30;15.60;98.00
24560;DHT22;12727;49.934;8.656;2023-04-29T13:51:55;15.50;98.40
24560;DHT22;12727;49.934;8.656;2023-04-29T13:54:21;15.40;98.70
24560;DHT22;12727;49.934;8.656;2023-04-29T13:56:47;15.50;98.50
24560;DHT22;12727;49.934;8.656;2023-04-29T13:59:13;15.40;98.50
24560;DHT22;12727;49.934;8.656;2023-04-29T14:01:38;15.40;98.90
24560;DHT22;12727;49.934;8.656;2023-04-29T14:04:04;15.40;98.50
24560;DHT22;12727;49.934;8.656;2023-04-29T14:06:30;15.40;98.40
24560;DHT22;12727;49.934;8.656;2023-04-29T14:08:59;15.40;98.30
24560;DHT22;12727;49.934;8.656;2023-04-29T14:11:24;15.50;98.50
24560;DHT22;12727;49.934;8.656;2023-04-29T14:13:50;15.60;98.30
24560;DHT22;12727;49.934;8.656;2023-04-29T14:16:16;15.60;98.10
24560;DHT22;12727;49.934;8.656;2023-04-29T14:18:41;15.60;98.30
24560;DHT22;12727;49.934;8.656;2023-04-29T14:21:07;15.50;98.60
24560;DHT22;12727;49.934;8.656;2023-04-29T14:23:33;15.40;97.90
24560;DHT22;12727;49.934;8.656;2023-04-29T14:25:59;15.40;98.20
24560;DHT22;12727;49.934;8.656;2023-04-29T14:28:24;15.40;98.30
24560;DHT22;12727;49.934;8.656;2023-04-29T14:30:50;15.30;97.90
24560;DHT22;12727;49.934;8.656;2023-04-29T14:33:15;15.20;98.10
24560;DHT22;12727;49.934;8.656;2023-04-29T14:35:41;15.10;97.60
24560;DHT22;12727;49.934;8.656;2023-04-29T14:38:06;15.00;98.30
24560;DHT22;12727;49.934;8.656;2023-04-29T14:40:33;14.90;98.40
24560;DHT22;12727;49.934;8.656;2023-04-29T14:42:58;14.90;98.40
24560;DHT22;12727;49.934;8.656;2023-04-29T14:45:24;14.90;98.30
24560;DHT22;12727;49.934;8.656;2023-04-29T14:47:49;14.80;98.00
24560;DHT22;12727;49.934;8.656;2023-04-29T14:50:15;14.80;98.10
24560;DHT22;12727;49.934;8.656;2023-04-29T14:52:41;14.90;98.50
24560;DHT22;12727;49.934;8.656;2023-04-29T14:55:06;15.10;98.40
24560;DHT22;12727;49.934;8.656;2023-04-29T14:57:33;15.30;98.70
24560;DHT22;12727;49.934;8.656;2023-04-29T14:59:58;15.40;98.00
24560;DHT22;12727;49.934;8.656;2023-04-29T15:02:24;15.40;97.90
24560;DHT22;12727;49.934;8.656;2023-04-29T15:04:50;15.50;97.90
24560;DHT22;12727;49.934;8.656;2023-04-29T15:07:16;15.40;96.80
24560;DHT22;12727;49.934;8.656;2023-04-29T15:09:41;15.30;97.70
24560;DHT22;12727;49.934;8.656;2023-04-29T15:12:07;15.40;97.90
24560;DHT22;12727;49.934;8.656;2023-04-29T15:14:33;15.40;97.70
24560;DHT22;12727;49.934;8.656;2023-04-29T15:17:00;15.40;98.00
24560;DHT22;12727;49.934;8.656;2023-04-29T15:19:26;15.40;96.70
24560;DHT22;12727;49.934;8.656;2023-04-29T15:21:51;15.30;97.10
24560;DHT22;12727;49.934;8.656;2023-04-29T15:24:18;15.40;97.50
24560;DHT22;12727;49.934;8.656;2023-04-29T15:26:44;15.40;97.70
24560;DHT22;12727;49.934;8.656;2023-04-29T15:29:10;15.40;97.80
24560;DHT22;12727;49.934;8.656;2023-04-29T15:31:36;15.40;97.70
24560;DHT22;12727;49.934;8.656;2023-04-29T15:34:02;15.50;98.40
24560;DHT22;12727;49.934;8.656;2023-04-29T15:36:29;15.50;98.10
24560;DHT22;12727;49.934;8.656;2023-04-29T15:38:55;15.60;98.00
24560;DHT22;12727;49.934;8.656;2023-04-29T15:41:21;15.60;98.20
24560;DHT22;12727;49.934;8.656;2023-04-29T15:43:47;15.40;97.80
24560;DHT22;12727;49.934;8.656;2023-04-29T15:46:12;15.20;99.10
24560;DHT22;12727;49.934;8.656;2023-04-29T15:48:38;15.10;98.70
24560;DHT22;12727;49.934;8.656;2023-04-29T15:51:04;15.20;98.80
24560;DHT22;12727;49.934;8.656;2023-04-29T15:53:29;15.20;98.50
24560;DHT22;12727;49.934;8.656;2023-04-29T15:55:55;15.10;98.90
24560;DHT22;12727;49.934;8.656;2023-04-29T15:58:21;15.20;98.70